Time;durP1;ratioP1;P1;durP2;ratioP2;P2;SDS_P1;SDS_P2;PMS_P1;PMS_P2;Temp;Humidity;BMP_temperature;BMP_pressure;BME280_temperature;BME280_humidity;BME280_pressure;Samples;Min_cycle;Max_cycle;Signal;HPM_P1;HPM_P2
2023/12/09 00:00:43;;;;;;;85.85;30.63;;;7.90;99.90;;;;;;5013068;28;20041;-77
2023/12/09 00:03:08;;;;;;;85.32;30.95;;;7.80;99.90;;;;;;4996714;28;20034;-78
2023/12/09 00:05:34;;;;;;;88.47;30.23;;;7.80;99.90;;;;;;5014512;28;20092;-78
2023/12/09 00:08:00;;;;;;;87.97;31.88;;;7.90;99.90;;;;;;5011527;28;20457;-77
2023/12/09 00:10:25;;;;;;;95.32;32.13;;;7.80;99.90;;;;;;5011782;28;20038;-77
2023/12/09 00:12:51;;;;;;;91.05;30.98;;;7.90;99.90;;;;;;5013063;28;20046;-78
2023/12/09 00:15:17;;;;;;;89.25;30.63;;;8.00;99.90;;;;;;5012228;28;20040;-77
2023/12/09 00:17:43;;;;;;;98.93;32.47;;;7.80;99.90;;;;;;5011294;28;20132;-77
2023/12/09 00:20:09;;;;;;;93.80;32.28;;;8.10;99.90;;;;;;4994973;28;20045;-77
2023/12/09 00:22:34;;;;;;;77.00;28.52;;;8.20;99.90;;;;;;5012243;28;20042;-77
2023/12/09 00:25:00;;;;;;;96.20;32.58;;;7.90;99.90;;;;;;5012506;28;20040;-77
2023/12/09 00:27:26;;;;;;;114.35;32.28;;;8.10;99.90;;;;;;5011585;28;20401;-78
2023/12/09 00:29:51;;;;;;;99.45;31.45;;;8.00;99.90;;;;;;5011673;28;20049;-78
2023/12/09 00:32:17;;;;;;;83.43;30.17;;;8.10;99.90;;;;;;5012232;28;20100;-78
2023/12/09 00:34:42;;;;;;;92.70;32.35;;;7.90;99.90;;;;;;5011133;28;20449;-78
2023/12/09 00:37:08;;;;;;;68.50;27.98;;;8.10;99.90;;;;;;5011485;28;20037;-78
2023/12/09 00:39:34;;;;;;;79.00;30.65;;;8.10;99.90;;;;;;5011180;28;20432;-78
2023/12/09 00:41:59;;;;;;;93.85;29.73;;;8.10;99.90;;;;;;5011499;28;20099;-77
2023/12/09 00:44:25;;;;;;;88.30;31.48;;;7.90;99.90;;;;;;4995313;28;20413;-78
2023/12/09 00:46:51;;;;;;;79.25;27.98;;;8.00;99.90;;;;;;5010028;28;20076;-78
2023/12/09 00:49:16;;;;;;;78.13;27.50;;;8.20;99.90;;;;;;5010076;28;20037;-77
2023/12/09 00:51:42;;;;;;;81.93;28.52;;;8.00;99.90;;;;;;5011287;28;20073;-78
2023/12/09 00:54:08;;;;;;;71.38;27.60;;;8.00;99.90;;;;;;5011213;28;20053;-78
2023/12/09 00:56:33;;;;;;;68.40;29.58;;;8.10;99.90;;;;;;5011399;28;20049;-78
2023/12/09 00:58:59;;;;;;;88.00;30.30;;;8.20;99.90;;;;;;4994757;28;20514;-78
2023/12/09 01:01:24;;;;;;;76.50;27.20;;;8.20;99.90;;;;;;5011199;28;20091;-78
2023/12/09 01:03:50;;;;;;;80.63;27.63;;;8.10;99.90;;;;;;5011237;28;20515;-78
2023/12/09 01:06:16;;;;;;;77.18;27.70;;;8.10;99.90;;;;;;5011162;28;20039;-77
2023/12/09 01:08:42;;;;;;;73.57;26.60;;;7.90;99.90;;;;;;5011149;28;20057;-77
2023/12/09 01:11:07;;;;;;;77.28;29.95;;;8.20;99.90;;;;;;5011315;28;20038;-77
2023/12/09 01:13:33;;;;;;;75.65;27.48;;;8.10;99.90;;;;;;4995675;28;20404;-77
2023/12/09 01:15:59;;;;;;;72.68;26.27;;;8.10;99.90;;;;;;5010970;28;20034;-77
2023/12/09 01:18:24;;;;;;;71.80;26.75;;;8.00;99.90;;;;;;5010655;28;20088;-78
2023/12/09 01:20:50;;;;;;;75.15;27.40;;;8.10;99.90;;;;;;5011144;28;20077;-78
2023/12/09 01:23:16;;;;;;;75.53;26.42;;;8.20;99.90;;;;;;4995016;28;20497;-78
2023/12/09 01:25:41;;;;;;;71.47;27.23;;;8.10;99.90;;;;;;5010662;28;20038;-78
2023/12/09 01:28:07;;;;;;;74.68;27.33;;;8.20;99.90;;;;;;4993319;28;20034;-78
2023/12/09 01:30:33;;;;;;;75.50;26.33;;;8.20;99.90;;;;;;5011462;28;20084;-78
2023/12/09 01:32:59;;;;;;;78.88;27.60;;;8.20;99.90;;;;;;5010695;28;20488;-78
2023/12/09 01:35:24;;;;;;;75.68;29.73;;;8.30;99.90;;;;;;5010598;28;20124;-78
2023/12/09 01:40:18;;;;;;;70.43;25.83;;;8.20;99.90;;;;;;4970118;28;20498;-73
2023/12/09 01:42:43;;;;;;;73.05;26.67;;;8.10;99.90;;;;;;4972253;28;20046;-73
2023/12/09 01:45:10;;;;;;;71.63;26.77;;;8.20;99.90;;;;;;4972640;28;20105;-73
2023/12/09 01:47:38;;;;;;;88.15;29.60;;;8.20;99.90;;;;;;4972355;28;20045;-73
2023/12/09 01:50:06;;;;;;;77.10;28.08;;;8.30;99.90;;;;;;4972121;28;20043;-71
2023/12/09 01:52:32;;;;;;;70.88;28.02;;;8.20;99.90;;;;;;4972026;28;20038;-71
2023/12/09 01:54:59;;;;;;;72.97;27.20;;;8.30;99.90;;;;;;4972746;28;20106;-71
2023/12/09 01:57:25;;;;;;;77.85;26.27;;;8.20;99.90;;;;;;4972398;28;20054;-71
2023/12/09 01:59:51;;;;;;;63.60;26.83;;;8.20;99.90;;;;;;4973285;28;20110;-71
2023/12/09 02:02:16;;;;;;;79.15;28.45;;;8.20;99.90;;;;;;4974664;28;20114;-71
2023/12/09 02:04:42;;;;;;;57.92;24.45;;;8.20;99.90;;;;;;4975894;28;20530;-71
2023/12/09 02:07:08;;;;;;;67.20;24.23;;;8.40;99.90;;;;;;4976079;28;20046;-71
2023/12/09 02:09:37;;;;;;;71.70;26.65;;;8.20;99.90;;;;;;4975807;28;20039;-71
2023/12/09 02:12:10;;;;;;;65.65;25.15;;;8.30;99.90;;;;;;4976051;28;20043;-71
2023/12/09 02:15:06;;;;;;;74.28;26.17;;;8.40;99.90;;;;;;4974799;28;20450;-71
2023/12/09 02:17:36;;;;;;;62.85;23.58;;;8.40;99.90;;;;;;4974247;28;20078;-71
2023/12/09 02:20:03;;;;;;;72.88;25.40;;;8.20;99.90;;;;;;4975809;28;20039;-71
2023/12/09 02:22:29;;;;;;;63.05;22.48;;;8.50;99.90;;;;;;4975812;28;20039;-71
2023/12/09 02:24:54;;;;;;;53.67;22.65;;;8.30;99.90;;;;;;4975648;28;20039;-71
2023/12/09 02:27:34;;;;;;;69.05;23.70;;;8.20;99.90;;;;;;4975398;28;20469;-71
2023/12/09 02:30:14;;;;;;;70.32;24.88;;;8.30;99.90;;;;;;4975476;28;20031;-71
2023/12/09 02:32:40;;;;;;;69.05;25.55;;;8.40;99.90;;;;;;4975691;28;20035;-71
2023/12/09 02:35:10;;;;;;;70.70;25.65;;;8.30;99.90;;;;;;4975555;28;20041;-71
2023/12/09 02:37:36;;;;;;;63.25;23.23;;;8.30;99.90;;;;;;4975184;28;20043;-71
2023/12/09 02:40:03;;;;;;;65.53;22.17;;;8.30;99.90;;;;;;4975127;28;20113;-71
2023/12/09 02:42:29;;;;;;;62.42;23.15;;;8.40;99.90;;;;;;4975565;28;20442;-71
2023/12/09 02:44:56;;;;;;;56.70;23.33;;;8.50;99.90;;;;;;4975501;28;20038;-71
2023/12/09 02:47:21;;;;;;;63.40;23.60;;;8.40;99.90;;;;;;4975155;28;20054;-71
2023/12/09 02:49:47;;;;;;;61.25;24.40;;;8.40;99.90;;;;;;4975185;28;20046;-71
2023/12/09 02:52:12;;;;;;;56.10;23.05;;;8.50;99.90;;;;;;4973840;28;20422;-71
2023/12/09 02:54:38;;;;;;;66.45;24.42;;;8.40;99.90;;;;;;4975051;28;20122;-71
2023/12/09 02:57:04;;;;;;;61.03;23.65;;;8.50;99.90;;;;;;4974746;28;20387;-71
2023/12/09 02:59:30;;;;;;;59.03;23.27;;;8.30;99.90;;;;;;4973676;28;20042;-71
2023/12/09 03:01:57;;;;;;;63.22;23.63;;;8.50;99.90;;;;;;4974977;28;20117;-71
2023/12/09 03:04:22;;;;;;;63.72;24.02;;;8.50;99.90;;;;;;4974868;28;20502;-71
2023/12/09 03:06:48;;;;;;;68.72;24.85;;;8.50;99.90;;;;;;4974694;28;20046;-71
2023/12/09 03:09:14;;;;;;;60.92;23.95;;;8.50;99.90;;;;;;4974758;28;20046;-71
2023/12/09 03:11:39;;;;;;;64.85;23.00;;;8.40;99.90;;;;;;4974110;28;20048;-71
2023/12/09 03:14:05;;;;;;;64.25;24.80;;;8.40;99.90;;;;;;4974940;28;20051;-71
2023/12/09 03:16:30;;;;;;;65.25;23.80;;;8.50;99.90;;;;;;4974602;28;20039;-71
2023/12/09 03:18:56;;;;;;;63.85;22.83;;;8.40;99.90;;;;;;4974716;28;20467;-71
2023/12/09 03:21:22;;;;;;;67.95;22.75;;;8.50;99.90;;;;;;4974608;28;20034;-71
2023/12/09 03:23:47;;;;;;;62.53;23.80;;;8.50;99.90;;;;;;4973502;28;20646;-71
2023/12/09 03:26:18;;;;;;;62.85;22.42;;;8.50;99.90;;;;;;4974166;28;20035;-71
2023/12/09 03:28:44;;;;;;;71.38;24.83;;;8.30;99.90;;;;;;4973195;28;20086;-71
2023/12/09 03:31:14;;;;;;;50.08;19.65;;;8.60;99.90;;;;;;4973267;28;20515;-71
2023/12/09 03:33:40;;;;;;;65.18;22.55;;;8.50;99.90;;;;;;4974454;28;20125;-71
2023/12/09 03:36:08;;;;;;;62.50;22.38;;;8.30;99.90;;;;;;4974063;28;20178;-72
2023/12/09 03:38:33;;;;;;;59.03;21.67;;;8.50;99.90;;;;;;4974100;28;20039;-72
2023/12/09 03:40:59;;;;;;;49.80;21.25;;;8.30;99.90;;;;;;4974005;28;20406;-72
2023/12/09 03:43:25;;;;;;;57.78;20.60;;;8.40;99.90;;;;;;4974382;28;20406;-72
2023/12/09 03:45:50;;;;;;;59.42;18.55;;;8.40;99.90;;;;;;4974079;28;20035;-72
2023/12/09 03:48:17;;;;;;;53.85;20.83;;;8.30;99.90;;;;;;4973759;28;20079;-71
2023/12/09 03:50:42;;;;;;;55.38;20.30;;;8.40;99.90;;;;;;4974042;28;20051;-71
2023/12/09 03:53:08;;;;;;;55.45;18.67;;;8.50;99.90;;;;;;4974029;28;20046;-72
2023/12/09 03:55:34;;;;;;;57.25;20.95;;;8.30;99.90;;;;;;4973680;28;20070;-71
2023/12/09 03:57:59;;;;;;;49.10;19.45;;;8.40;99.90;;;;;;4973779;28;20042;-72
2023/12/09 04:00:25;;;;;;;56.40;21.48;;;8.50;99.90;;;;;;4973755;28;20089;-72
2023/12/09 04:02:51;;;;;;;58.03;19.90;;;8.50;99.90;;;;;;4988711;28;20478;-72
2023/12/09 04:05:16;;;;;;;48.03;18.58;;;8.40;99.90;;;;;;4973681;28;20117;-72
2023/12/09 04:07:42;;;;;;;47.53;19.70;;;8.40;99.90;;;;;;4973620;28;20043;-72
2023/12/09 04:10:10;;;;;;;51.92;19.27;;;8.40;99.90;;;;;;4972130;28;20153;-72
2023/12/09 04:12:36;;;;;;;43.97;16.98;;;8.30;99.90;;;;;;4973667;28;20043;-72
2023/12/09 04:15:03;;;;;;;44.10;18.13;;;8.20;99.90;;;;;;4972453;28;20041;-71
2023/12/09 04:17:28;;;;;;;39.00;17.08;;;8.40;99.90;;;;;;4973356;28;20053;-71
2023/12/09 04:19:54;;;;;;;50.50;18.17;;;8.40;99.90;;;;;;4973487;28;20038;-72
2023/12/09 04:22:20;;;;;;;42.63;17.35;;;8.30;99.90;;;;;;4972162;28;20043;-72
2023/12/09 04:24:45;;;;;;;47.92;17.98;;;8.40;99.90;;;;;;4971184;28;20042;-71
2023/12/09 04:27:12;;;;;;;37.78;17.35;;;8.30;99.90;;;;;;4973150;28;20402;-71
2023/12/09 04:29:38;;;;;;;44.88;17.13;;;8.50;99.90;;;;;;4973249;28;20031;-72
2023/12/09 04:32:04;;;;;;;44.05;16.05;;;8.50;99.90;;;;;;4973303;28;20118;-72
2023/12/09 04:34:29;;;;;;;49.58;17.58;;;8.40;99.90;;;;;;4973353;28;20384;-72
2023/12/09 04:36:56;;;;;;;45.22;16.42;;;8.50;99.90;;;;;;4973049;28;20039;-72
2023/12/09 04:39:22;;;;;;;51.53;17.15;;;8.30;99.90;;;;;;4972809;28;20426;-71
2023/12/09 04:41:47;;;;;;;48.30;16.83;;;8.50;99.90;;;;;;4971830;28;20034;-72
2023/12/09 04:44:13;;;;;;;38.28;16.23;;;8.30;99.90;;;;;;4971868;28;20122;-71
2023/12/09 04:46:39;;;;;;;45.72;17.05;;;8.30;99.90;;;;;;4971927;28;20035;-72
2023/12/09 04:49:04;;;;;;;46.00;17.08;;;8.50;99.90;;;;;;4971397;28;20074;-71
2023/12/09 04:51:30;;;;;;;35.10;14.77;;;8.40;99.90;;;;;;4970858;28;20084;-72
2023/12/09 04:53:55;;;;;;;42.13;16.65;;;8.40;99.90;;;;;;4972630;28;20097;-71
2023/12/09 04:56:21;;;;;;;34.20;15.35;;;8.30;99.90;;;;;;4972887;28;20042;-72
2023/12/09 04:58:47;;;;;;;48.10;16.05;;;8.30;99.90;;;;;;4972942;28;20117;-72
2023/12/09 05:01:13;;;;;;;39.92;17.10;;;8.50;99.90;;;;;;4972860;28;20051;-72
2023/12/09 05:03:38;;;;;;;40.67;15.68;;;8.50;99.90;;;;;;4972992;28;20039;-72
2023/12/09 05:06:04;;;;;;;40.58;15.18;;;8.30;99.90;;;;;;4972500;28;20039;-72
2023/12/09 05:08:30;;;;;;;42.22;15.13;;;8.50;99.90;;;;;;4973081;28;20070;-71
2023/12/09 05:10:56;;;;;;;30.33;14.27;;;8.40;99.90;;;;;;4972844;28;20043;-72
2023/12/09 05:13:22;;;;;;;40.38;15.18;;;8.50;99.90;;;;;;4972725;28;20085;-71
2023/12/09 05:15:48;;;;;;;33.03;15.40;;;8.40;99.90;;;;;;4972822;28;20058;-72
2023/12/09 05:18:14;;;;;;;40.88;15.25;;;8.40;99.90;;;;;;4972635;28;20050;-72
2023/12/09 05:20:40;;;;;;;44.65;15.40;;;8.50;99.90;;;;;;4972658;28;20054;-72
2023/12/09 05:23:06;;;;;;;35.30;14.50;;;8.50;99.90;;;;;;4971406;28;20415;-71
2023/12/09 05:25:32;;;;;;;36.47;14.18;;;8.50;99.90;;;;;;4971614;28;20043;-72
2023/12/09 05:27:58;;;;;;;46.47;16.52;;;8.50;99.90;;;;;;4971790;28;20039;-71
2023/12/09 05:30:23;;;;;;;38.80;13.95;;;8.40;99.90;;;;;;4972654;28;20035;-72
2023/12/09 05:32:49;;;;;;;42.88;13.90;;;8.50;99.90;;;;;;4972625;28;20043;-72
2023/12/09 05:35:15;;;;;;;36.05;14.32;;;8.50;99.90;;;;;;4974015;28;20038;-71
2023/12/09 05:37:40;;;;;;;38.72;13.63;;;8.50;99.90;;;;;;4976191;28;20560;-72
2023/12/09 05:40:07;;;;;;;28.13;13.82;;;8.40;99.90;;;;;;4976207;28;20035;-71
2023/12/09 05:42:33;;;;;;;33.13;14.13;;;8.50;99.90;;;;;;4975160;28;20391;-71
2023/12/09 05:44:58;;;;;;;36.03;14.10;;;8.30;99.90;;;;;;4976404;28;20042;-71
2023/12/09 05:47:25;;;;;;;34.88;12.48;;;8.30;99.90;;;;;;4975684;28;20042;-72
2023/12/09 05:49:50;;;;;;;36.03;13.38;;;8.40;99.90;;;;;;4976005;28;20122;-72
2023/12/09 05:52:17;;;;;;;47.38;14.50;;;8.40;99.90;;;;;;4976008;28;20074;-71
2023/12/09 05:54:43;;;;;;;35.55;14.25;;;8.50;99.90;;;;;;4975174;28;20082;-71
2023/12/09 05:57:08;;;;;;;36.38;14.95;;;8.40;99.90;;;;;;4975629;28;20533;-72
2023/12/09 05:59:34;;;;;;;32.63;13.25;;;8.30;99.90;;;;;;4975831;28;20081;-72
2023/12/09 06:02:00;;;;;;;42.92;13.88;;;8.50;99.90;;;;;;4975944;28;20070;-72
2023/12/09 06:04:25;;;;;;;35.00;12.88;;;8.30;99.90;;;;;;4975974;28;20562;-72
2023/12/09 06:06:51;;;;;;;37.90;13.73;;;8.50;99.90;;;;;;4975536;28;20038;-72
2023/12/09 06:09:17;;;;;;;32.53;12.60;;;8.50;99.90;;;;;;4976057;28;20042;-72
2023/12/09 06:11:42;;;;;;;34.78;14.15;;;8.50;99.90;;;;;;4976014;28;20549;-72
2023/12/09 06:14:08;;;;;;;36.47;14.93;;;8.50;99.90;;;;;;4975943;28;20046;-71
2023/12/09 06:16:34;;;;;;;33.53;14.80;;;8.40;99.90;;;;;;4975559;28;20042;-72
2023/12/09 06:18:59;;;;;;;37.55;14.80;;;8.30;99.90;;;;;;4974347;28;20047;-71
2023/12/09 06:21:26;;;;;;;34.20;13.23;;;8.40;99.90;;;;;;4975534;28;20081;-72
2023/12/09 06:23:52;;;;;;;31.00;13.40;;;8.30;99.90;;;;;;4975861;28;20039;-71
2023/12/09 06:26:18;;;;;;;38.88;14.02;;;8.50;99.90;;;;;;4975479;28;20123;-71
2023/12/09 06:28:44;;;;;;;40.22;14.95;;;8.40;99.90;;;;;;4975679;28;20042;-71
2023/12/09 06:31:13;;;;;;;35.67;14.02;;;8.50;99.90;;;;;;4975584;28;20039;-71
2023/12/09 06:33:39;;;;;;;30.90;13.60;;;8.50;99.90;;;;;;4974216;28;20042;-71
2023/12/09 06:36:05;;;;;;;35.50;14.15;;;8.40;99.90;;;;;;4975084;28;20590;-71
2023/12/09 06:38:33;;;;;;;38.53;13.70;;;8.40;99.90;;;;;;4975382;28;20043;-72
2023/12/09 06:40:59;;;;;;;34.60;13.35;;;8.30;99.90;;;;;;4975445;28;20039;-71
2023/12/09 06:43:24;;;;;;;40.65;13.65;;;8.50;99.90;;;;;;4974037;28;20043;-71
2023/12/09 06:45:50;;;;;;;38.78;15.30;;;8.30;99.90;;;;;;4973579;28;20077;-71
2023/12/09 06:48:15;;;;;;;35.03;14.30;;;8.30;99.90;;;;;;4974276;28;20042;-71
2023/12/09 06:50:43;;;;;;;35.10;13.95;;;8.30;99.90;;;;;;4975054;28;20043;-72
2023/12/09 06:53:13;;;;;;;39.88;14.88;;;8.50;99.90;;;;;;4975315;28;20042;-71
2023/12/09 06:55:39;;;;;;;36.72;13.50;;;8.30;99.90;;;;;;4975128;28;20093;-71
2023/12/09 06:58:04;;;;;;;33.38;11.90;;;8.40;99.90;;;;;;4974936;28;20402;-71
2023/12/09 07:00:30;;;;;;;34.05;13.65;;;8.30;99.90;;;;;;4975049;28;20549;-71
2023/12/09 07:02:55;;;;;;;38.28;12.68;;;8.30;99.90;;;;;;4974911;28;20431;-72
2023/12/09 07:05:21;;;;;;;34.75;13.10;;;8.30;99.90;;;;;;4974747;28;20077;-71
2023/12/09 07:07:48;;;;;;;35.15;13.80;;;8.40;99.90;;;;;;4974890;28;20030;-71
2023/12/09 07:10:14;;;;;;;34.65;12.30;;;8.30;99.90;;;;;;4974898;28;20050;-71
2023/12/09 07:12:40;;;;;;;32.75;12.13;;;8.30;99.90;;;;;;4974788;28;20039;-72
2023/12/09 07:15:08;;;;;;;37.85;13.48;;;8.20;99.90;;;;;;4974722;28;20042;-71
2023/12/09 07:17:33;;;;;;;42.22;13.32;;;8.20;99.90;;;;;;4974359;28;20050;-72
2023/12/09 07:19:59;;;;;;;30.30;12.27;;;8.20;99.90;;;;;;4974944;28;20508;-72
2023/12/09 07:22:25;;;;;;;29.00;11.95;;;8.20;99.90;;;;;;4973616;28;20034;-72
2023/12/09 07:24:51;;;;;;;36.97;12.95;;;8.20;99.90;;;;;;4974587;28;20042;-71
2023/12/09 07:27:17;;;;;;;30.00;11.93;;;8.20;99.90;;;;;;4974359;28;20122;-72
2023/12/09 07:29:43;;;;;;;34.28;12.25;;;8.30;99.90;;;;;;4973204;28;20070;-72
2023/12/09 07:32:09;;;;;;;27.83;12.40;;;8.20;99.90;;;;;;4974404;28;20050;-71
2023/12/09 07:34:35;;;;;;;29.00;11.38;;;8.30;99.90;;;;;;4974600;28;20047;-71
2023/12/09 07:37:01;;;;;;;29.65;11.25;;;8.30;99.90;;;;;;4972978;28;20077;-72
2023/12/09 07:39:26;;;;;;;32.72;14.20;;;8.20;99.90;;;;;;4973931;28;20045;-72
2023/12/09 07:41:52;;;;;;;27.25;10.98;;;8.30;99.90;;;;;;4974016;28;20403;-72
2023/12/09 07:44:19;;;;;;;50.20;12.65;;;8.30;99.90;;;;;;4972858;28;20073;-72
2023/12/09 07:46:45;;;;;;;27.42;12.05;;;8.30;99.90;;;;;;4972583;28;20088;-71
2023/12/09 07:49:11;;;;;;;30.30;12.35;;;8.20;99.90;;;;;;4974282;28;20035;-72
2023/12/09 07:51:37;;;;;;;32.88;11.13;;;8.10;99.90;;;;;;4974133;28;20101;-72
2023/12/09 07:54:03;;;;;;;29.77;11.43;;;8.20;99.90;;;;;;4961995;28;20055;-72
2023/12/09 07:56:28;;;;;;;36.63;12.88;;;8.20;99.90;;;;;;4964170;28;20495;-73
2023/12/09 07:58:54;;;;;;;24.77;11.48;;;8.20;99.90;;;;;;4959388;28;20035;-72
2023/12/09 08:01:19;;;;;;;39.63;13.65;;;8.20;99.90;;;;;;4953973;28;20571;-72
2023/12/09 08:03:45;;;;;;;31.75;11.93;;;8.20;99.90;;;;;;4954466;29;20044;-72
2023/12/09 08:06:11;;;;;;;35.63;11.82;;;8.20;99.90;;;;;;4954169;28;20495;-72
2023/12/09 08:08:38;;;;;;;34.45;11.23;;;8.20;99.90;;;;;;4959618;28;20490;-72
2023/12/09 08:11:04;;;;;;;31.70;10.32;;;8.30;99.90;;;;;;4973331;28;20062;-72
2023/12/09 08:13:30;;;;;;;23.92;10.90;;;8.10;99.90;;;;;;4973437;28;20073;-72
2023/12/09 08:15:55;;;;;;;32.65;9.43;;;8.10;99.90;;;;;;4970170;28;20075;-72
2023/12/09 08:18:21;;;;;;;20.95;9.88;;;8.20;99.90;;;;;;4967430;28;20462;-72
2023/12/09 08:20:46;;;;;;;22.65;8.40;;;8.10;99.90;;;;;;4970490;28;20518;-73
2023/12/09 08:23:12;;;;;;;27.17;10.50;;;8.20;99.90;;;;;;4964485;28;20046;-72
2023/12/09 08:25:39;;;;;;;28.58;10.43;;;8.30;99.90;;;;;;4953992;28;20648;-72
2023/12/09 08:28:05;;;;;;;24.95;9.23;;;8.30;99.90;;;;;;4953943;28;20053;-73
2023/12/09 08:30:32;;;;;;;28.98;9.80;;;8.30;99.90;;;;;;4954037;28;20074;-73
2023/12/09 08:32:58;;;;;;;25.27;8.93;;;8.30;99.90;;;;;;4953062;29;20074;-72
2023/12/09 08:35:24;;;;;;;26.55;9.88;;;8.40;99.90;;;;;;4953974;28;20519;-73
2023/12/09 08:37:49;;;;;;;31.20;9.35;;;8.30;99.90;;;;;;4953844;29;20043;-73
2023/12/09 08:40:15;;;;;;;27.23;8.82;;;8.20;99.90;;;;;;4967193;28;20041;-72
2023/12/09 08:42:42;;;;;;;20.00;7.90;;;8.20;99.90;;;;;;4971949;28;20043;-74
2023/12/09 08:45:13;;;;;;;20.90;9.35;;;8.20;99.90;;;;;;4971819;28;20054;-71
2023/12/09 08:47:39;;;;;;;25.20;8.68;;;8.40;99.90;;;;;;4971909;28;20067;-71
2023/12/09 08:50:05;;;;;;;21.27;8.20;;;8.30;99.90;;;;;;4972735;28;20050;-74
2023/12/09 08:52:31;;;;;;;20.73;7.85;;;8.40;99.90;;;;;;4955824;28;20486;-75
2023/12/09 08:54:58;;;;;;;23.90;7.88;;;8.30;99.90;;;;;;4971624;28;20067;-74
2023/12/09 08:57:24;;;;;;;22.98;7.60;;;8.30;99.90;;;;;;4976599;28;20121;-74
2023/12/09 08:59:50;;;;;;;24.95;7.63;;;8.20;99.90;;;;;;4964529;28;20039;-74
2023/12/09 09:02:15;;;;;;;18.45;7.32;;;8.30;99.90;;;;;;4971694;28;20051;-74
2023/12/09 09:04:41;;;;;;;23.05;7.00;;;8.30;99.90;;;;;;4972089;28;20043;-75
2023/12/09 09:07:08;;;;;;;20.02;7.15;;;8.20;99.90;;;;;;4972928;28;20066;-74
2023/12/09 09:09:35;;;;;;;16.63;5.95;;;8.20;99.90;;;;;;4974395;28;20042;-72
2023/12/09 09:12:00;;;;;;;22.73;6.57;;;8.30;99.90;;;;;;4967895;28;20066;-73
2023/12/09 09:14:26;;;;;;;31.65;8.23;;;8.30;99.90;;;;;;4968580;28;20089;-73
2023/12/09 09:16:52;;;;;;;21.98;7.22;;;8.30;99.90;;;;;;4961244;28;20093;-73
2023/12/09 09:19:17;;;;;;;20.83;7.07;;;8.30;99.90;;;;;;4959842;28;20051;-73
2023/12/09 09:21:43;;;;;;;12.50;6.53;;;8.20;99.90;;;;;;4958564;28;20043;-73
2023/12/09 09:24:08;;;;;;;27.52;7.80;;;8.20;99.90;;;;;;4958573;28;20079;-73
2023/12/09 09:26:34;;;;;;;23.40;6.35;;;8.20;99.90;;;;;;4959615;29;20047;-73
2023/12/09 09:29:00;;;;;;;13.60;6.20;;;8.30;99.90;;;;;;4959956;28;20043;-73
2023/12/09 09:31:26;;;;;;;19.38;6.57;;;8.30;99.90;;;;;;4959795;29;20051;-73
2023/12/09 09:33:52;;;;;;;16.75;5.95;;;8.40;99.90;;;;;;4958596;29;20043;-73
2023/12/09 09:36:18;;;;;;;23.08;6.47;;;8.30;99.90;;;;;;4958571;29;20087;-73
2023/12/09 09:38:44;;;;;;;20.45;6.80;;;8.30;99.90;;;;;;4958418;29;20039;-73
2023/12/09 09:41:34;;;;;;;17.95;5.88;;;8.30;99.90;;;;;;4942347;29;20102;-74
2023/12/09 09:44:09;;;;;;;17.23;5.18;;;8.40;99.90;;;;;;4959814;28;20048;-74
2023/12/09 09:46:37;;;;;;;13.65;5.03;;;8.40;99.90;;;;;;4959521;28;20054;-72
2023/12/09 09:49:04;;;;;;;13.65;5.47;;;8.40;99.90;;;;;;4958539;28;20565;-72
2023/12/09 09:51:31;;;;;;;14.07;7.30;;;8.40;99.90;;;;;;4958458;28;20414;-75
2023/12/09 09:54:05;;;;;;;16.20;7.70;;;8.40;99.90;;;;;;4942374;29;20554;-73
2023/12/09 09:56:32;;;;;;;21.45;8.82;;;8.50;99.90;;;;;;4959369;28;20035;-73
2023/12/09 09:58:58;;;;;;;20.17;7.93;;;8.50;99.90;;;;;;4958572;29;20035;-72
2023/12/09 10:01:25;;;;;;;19.13;7.57;;;8.60;99.90;;;;;;4942276;29;20687;-73
2023/12/09 10:03:51;;;;;;;21.13;6.95;;;8.60;99.90;;;;;;4959522;28;20074;-73
2023/12/09 10:06:19;;;;;;;21.15;6.97;;;8.60;99.90;;;;;;4958062;28;20384;-73
2023/12/09 10:08:45;;;;;;;11.32;4.75;;;8.70;99.90;;;;;;4959650;28;20074;-73
2023/12/09 10:11:11;;;;;;;21.33;5.70;;;8.60;99.90;;;;;;4959415;28;20538;-73
2023/12/09 10:13:37;;;;;;;11.05;4.15;;;8.60;99.90;;;;;;4964456;28;20077;-73
2023/12/09 10:16:03;;;;;;;21.80;3.78;;;8.60;99.90;;;;;;4968090;28;20070;-74
2023/12/09 10:18:30;;;;;;;10.80;3.55;;;8.60;99.90;;;;;;4967069;28;20058;-73
2023/12/09 10:20:55;;;;;;;15.60;4.50;;;8.70;99.90;;;;;;4959403;28;20118;-73
2023/12/09 10:23:22;;;;;;;16.20;4.45;;;8.70;99.90;;;;;;4955018;29;20131;-73
2023/12/09 10:25:48;;;;;;;9.80;4.15;;;8.70;99.90;;;;;;4956429;28;20039;-73
2023/12/09 10:28:14;;;;;;;12.10;3.72;;;8.70;99.90;;;;;;4956262;28;20039;-72
2023/12/09 10:30:44;;;;;;;13.52;4.53;;;8.70;99.90;;;;;;4955081;29;20130;-73
2023/12/09 10:33:14;;;;;;;14.82;4.28;;;8.60;99.90;;;;;;4956334;28;20039;-73
2023/12/09 10:35:39;;;;;;;14.52;3.63;;;8.70;99.90;;;;;;4955991;29;20046;-73
2023/12/09 10:38:05;;;;;;;12.88;3.35;;;8.70;99.90;;;;;;4955945;28;20091;-73
2023/12/09 10:40:32;;;;;;;19.23;3.83;;;8.70;99.90;;;;;;4955970;29;20046;-74
2023/12/09 10:42:58;;;;;;;17.90;3.95;;;8.70;99.90;;;;;;4956170;28;20043;-73
2023/12/09 10:45:23;;;;;;;17.80;3.35;;;8.80;99.90;;;;;;4955985;28;20036;-74
2023/12/09 10:47:49;;;;;;;16.40;3.30;;;8.80;99.90;;;;;;4955791;29;20082;-74
2023/12/09 10:50:15;;;;;;;11.10;4.15;;;8.80;99.90;;;;;;4955804;29;20041;-76
2023/12/09 10:52:40;;;;;;;10.77;2.75;;;8.90;99.90;;;;;;4956040;29;20074;-73
2023/12/09 10:55:06;;;;;;;20.02;4.07;;;9.00;99.90;;;;;;4963384;28;20066;-74
2023/12/09 10:57:33;;;;;;;17.50;4.50;;;9.10;99.90;;;;;;4963977;28;20035;-74
2023/12/09 11:00:01;;;;;;;9.90;3.85;;;9.00;99.90;;;;;;4957207;28;20527;-74
2023/12/09 11:02:28;;;;;;;11.48;3.63;;;9.10;99.90;;;;;;4955637;28;20035;-74
2023/12/09 11:04:53;;;;;;;14.52;4.18;;;9.10;99.90;;;;;;4955801;29;20071;-74
2023/12/09 11:07:20;;;;;;;13.38;4.38;;;9.10;99.90;;;;;;4955510;29;20455;-74
2023/12/09 11:09:46;;;;;;;16.42;4.50;;;9.20;99.90;;;;;;4954511;29;20046;-73
2023/12/09 11:12:27;;;;;;;11.23;3.33;;;9.20;99.90;;;;;;4955595;29;20078;-74
2023/12/09 11:14:53;;;;;;;13.95;3.90;;;9.20;99.90;;;;;;4954632;29;20051;-73
2023/12/09 11:17:35;;;;;;;19.42;4.80;;;9.10;99.90;;;;;;4955196;29;20043;-74
2023/12/09 11:20:13;;;;;;;15.00;4.07;;;9.10;99.90;;;;;;4955518;29;20114;-74
2023/12/09 11:22:44;;;;;;;9.52;4.15;;;9.20;99.90;;;;;;4954185;29;20431;-74
2023/12/09 11:25:18;;;;;;;15.85;3.13;;;9.20;99.90;;;;;;4955393;28;20491;-73
2023/12/09 11:27:44;;;;;;;11.70;3.72;;;9.20;99.90;;;;;;4955038;29;20075;-73
2023/12/09 11:30:40;;;;;;;13.65;4.10;;;9.20;99.90;;;;;;4955338;29;20075;-74
2023/12/09 11:33:07;;;;;;;11.30;3.50;;;9.10;99.90;;;;;;4953485;28;20512;-73
2023/12/09 11:35:34;;;;;;;9.05;3.30;;;9.20;99.90;;;;;;4953709;29;20043;-74
2023/12/09 11:38:02;;;;;;;13.75;4.07;;;9.10;99.90;;;;;;4953332;28;20051;-73
2023/12/09 11:40:29;;;;;;;8.35;2.63;;;9.10;99.90;;;;;;4954960;28;20507;-74
2023/12/09 11:42:59;;;;;;;11.15;3.47;;;9.10;99.90;;;;;;4957261;28;20054;-74
2023/12/09 11:45:29;;;;;;;12.40;3.28;;;9.10;99.90;;;;;;4970546;28;20073;-73
2023/12/09 11:47:54;;;;;;;12.68;3.92;;;9.10;99.90;;;;;;4966833;28;20062;-73
2023/12/09 11:50:20;;;;;;;9.80;2.85;;;9.10;99.90;;;;;;4973880;28;20440;-74
2023/12/09 11:52:47;;;;;;;14.55;3.92;;;9.10;99.90;;;;;;4973967;28;20573;-73
2023/12/09 11:55:16;;;;;;;8.80;3.67;;;9.10;99.90;;;;;;4974055;28;20046;-73
2023/12/09 11:57:41;;;;;;;8.85;3.03;;;9.10;99.90;;;;;;4973947;28;20039;-73
2023/12/09 12:00:11;;;;;;;16.55;4.28;;;9.10;99.90;;;;;;4973983;28;20038;-73
2023/12/09 12:02:39;;;;;;;10.45;3.65;;;9.10;99.90;;;;;;4972548;28;20049;-73
2023/12/09 12:05:07;;;;;;;8.85;3.03;;;9.10;99.90;;;;;;4973758;28;20046;-73
2023/12/09 12:07:33;;;;;;;13.20;3.13;;;9.20;99.90;;;;;;4973486;28;20074;-74
2023/12/09 12:09:58;;;;;;;9.27;3.35;;;9.20;99.90;;;;;;4972457;28;20077;-73
2023/12/09 12:12:24;;;;;;;9.32;3.55;;;9.20;99.90;;;;;;4973562;28;20483;-74
2023/12/09 12:14:50;;;;;;;11.30;3.05;;;9.20;99.90;;;;;;4972670;28;20049;-74
2023/12/09 12:17:17;;;;;;;10.93;3.00;;;9.10;99.90;;;;;;4973421;28;20535;-73
2023/12/09 12:19:44;;;;;;;9.18;2.88;;;9.20;99.90;;;;;;4972191;28;20108;-73
2023/12/09 12:22:09;;;;;;;6.50;2.47;;;9.20;99.90;;;;;;4973705;28;20081;-73
2023/12/09 12:24:45;;;;;;;6.18;2.40;;;9.10;99.90;;;;;;4973654;28;20070;-73
2023/12/09 12:27:11;;;;;;;7.32;2.40;;;9.10;99.90;;;;;;4973274;28;20066;-73
2023/12/09 12:29:38;;;;;;;8.68;2.75;;;9.10;99.90;;;;;;4973405;28;20435;-74
2023/12/09 12:32:07;;;;;;;11.50;2.60;;;9.10;99.90;;;;;;4972152;28;20085;-73
2023/12/09 12:34:32;;;;;;;8.75;3.08;;;9.10;99.90;;;;;;4972299;28;20120;-74
2023/12/09 12:36:58;;;;;;;8.07;2.58;;;9.00;99.90;;;;;;4971790;28;20050;-70
2023/12/09 12:39:24;;;;;;;10.45;3.60;;;9.30;99.90;;;;;;4971881;28;20138;-71